sensor_id;sensor_type;location;lat;lon;timestamp;P1;durP1;ratioP1;P2;durP2;ratioP2
84889;SDS011;75153;52.222;5.160;2024-02-04T00:00:52;6.45;;;1.83;;
84889;SDS011;75153;52.222;5.160;2024-02-04T00:03:18;7.47;;;2.60;;
84889;SDS011;75153;52.222;5.160;2024-02-04T00:05:44;6.03;;;2.47;;
84889;SDS011;75153;52.222;5.160;2024-02-04T00:08:09;9.27;;;2.90;;
84889;SDS011;75153;52.222;5.160;2024-02-04T00:10:35;11.53;;;3.87;;
84889;SDS011;75153;52.222;5.160;2024-02-04T00:13:00;10.77;;;3.88;;
84889;SDS011;75153;52.222;5.160;2024-02-04T00:15:26;15.33;;;5.07;;
84889;SDS011;75153;52.222;5.160;2024-02-04T00:17:51;19.03;;;5.17;;
84889;SDS011;75153;52.222;5.160;2024-02-04T00:20:17;10.50;;;3.77;;
84889;SDS011;75153;52.222;5.160;2024-02-04T00:22:42;11.47;;;4.17;;
84889;SDS011;75153;52.222;5.160;2024-02-04T00:25:07;14.60;;;5.20;;
84889;SDS011;75153;52.222;5.160;2024-02-04T00:27:36;12.00;;;5.30;;
84889;SDS011;75153;52.222;5.160;2024-02-04T00:30:02;20.60;;;6.68;;
84889;SDS011;75153;52.222;5.160;2024-02-04T00:32:27;20.43;;;7.00;;
84889;SDS011;75153;52.222;5.160;2024-02-04T00:34:53;20.57;;;8.13;;
84889;SDS011;75153;52.222;5.160;2024-02-04T00:37:18;14.57;;;6.45;;
84889;SDS011;75153;52.222;5.160;2024-02-04T00:39:44;29.23;;;8.73;;
84889;SDS011;75153;52.222;5.160;2024-02-04T00:42:10;25.83;;;8.90;;
84889;SDS011;75153;52.222;5.160;2024-02-04T00:44:35;26.02;;;8.88;;
84889;SDS011;75153;52.222;5.160;2024-02-04T00:47:01;30.52;;;9.52;;
84889;SDS011;75153;52.222;5.160;2024-02-04T00:49:28;27.37;;;8.90;;
84889;SDS011;75153;52.222;5.160;2024-02-04T00:51:53;29.27;;;9.88;;
84889;SDS011;75153;52.222;5.160;2024-02-04T00:54:18;43.63;;;11.57;;
84889;SDS011;75153;52.222;5.160;2024-02-04T00:56:44;41.30;;;12.17;;
84889;SDS011;75153;52.222;5.160;2024-02-04T00:59:09;23.83;;;8.10;;
84889;SDS011;75153;52.222;5.160;2024-02-04T01:01:35;24.55;;;7.50;;
84889;SDS011;75153;52.222;5.160;2024-02-04T01:04:01;30.87;;;10.07;;
84889;SDS011;75153;52.222;5.160;2024-02-04T01:06:26;28.05;;;8.45;;
84889;SDS011;75153;52.222;5.160;2024-02-04T01:08:53;35.97;;;10.07;;
84889;SDS011;75153;52.222;5.160;2024-02-04T01:11:18;24.55;;;7.75;;
84889;SDS011;75153;52.222;5.160;2024-02-04T01:13:44;40.30;;;10.07;;
84889;SDS011;75153;52.222;5.160;2024-02-04T01:16:09;31.93;;;9.30;;
84889;SDS011;75153;52.222;5.160;2024-02-04T01:18:35;31.57;;;9.10;;
84889;SDS011;75153;52.222;5.160;2024-02-04T01:21:00;28.35;;;9.10;;
84889;SDS011;75153;52.222;5.160;2024-02-04T01:23:26;23.97;;;7.80;;
84889;SDS011;75153;52.222;5.160;2024-02-04T01:25:51;19.50;;;6.57;;
84889;SDS011;75153;52.222;5.160;2024-02-04T01:28:17;24.60;;;6.50;;
84889;SDS011;75153;52.222;5.160;2024-02-04T01:30:42;17.53;;;5.20;;
84889;SDS011;75153;52.222;5.160;2024-02-04T01:33:08;19.47;;;5.57;;
84889;SDS011;75153;52.222;5.160;2024-02-04T01:35:33;22.87;;;6.33;;
84889;SDS011;75153;52.222;5.160;2024-02-04T01:37:58;17.63;;;5.97;;
84889;SDS011;75153;52.222;5.160;2024-02-04T01:40:24;20.53;;;5.77;;
84889;SDS011;75153;52.222;5.160;2024-02-04T01:42:49;15.68;;;4.63;;
84889;SDS011;75153;52.222;5.160;2024-02-04T01:45:14;18.48;;;4.63;;
84889;SDS011;75153;52.222;5.160;2024-02-04T01:47:40;12.13;;;3.70;;
84889;SDS011;75153;52.222;5.160;2024-02-04T01:50:06;9.73;;;3.03;;
84889;SDS011;75153;52.222;5.160;2024-02-04T01:52:32;11.27;;;3.40;;
84889;SDS011;75153;52.222;5.160;2024-02-04T01:55:00;9.32;;;3.20;;
84889;SDS011;75153;52.222;5.160;2024-02-04T01:57:27;8.43;;;2.60;;
84889;SDS011;75153;52.222;5.160;2024-02-04T01:59:53;15.53;;;3.87;;
84889;SDS011;75153;52.222;5.160;2024-02-04T02:02:21;13.10;;;3.70;;
84889;SDS011;75153;52.222;5.160;2024-02-04T02:04:47;7.15;;;2.90;;
84889;SDS011;75153;52.222;5.160;2024-02-04T02:07:13;10.27;;;2.90;;
84889;SDS011;75153;52.222;5.160;2024-02-04T02:09:41;7.75;;;2.90;;
84889;SDS011;75153;52.222;5.160;2024-02-04T02:12:08;9.30;;;3.00;;
84889;SDS011;75153;52.222;5.160;2024-02-04T02:14:40;9.45;;;2.97;;
84889;SDS011;75153;52.222;5.160;2024-02-04T02:17:10;11.33;;;3.47;;
84889;SDS011;75153;52.222;5.160;2024-02-04T02:22:24;14.05;;;3.63;;
84889;SDS011;75153;52.222;5.160;2024-02-04T02:24:53;10.45;;;3.10;;
84889;SDS011;75153;52.222;5.160;2024-02-04T02:27:21;8.32;;;3.25;;
84889;SDS011;75153;52.222;5.160;2024-02-04T02:29:47;7.33;;;2.97;;
84889;SDS011;75153;52.222;5.160;2024-02-04T02:32:12;8.27;;;3.33;;
84889;SDS011;75153;52.222;5.160;2024-02-04T02:34:37;13.50;;;3.87;;
84889;SDS011;75153;52.222;5.160;2024-02-04T02:39:54;11.05;;;3.47;;
84889;SDS011;75153;52.222;5.160;2024-02-04T02:42:25;9.32;;;3.22;;
84889;SDS011;75153;52.222;5.160;2024-02-04T02:44:52;10.60;;;2.72;;
84889;SDS011;75153;52.222;5.160;2024-02-04T02:47:19;15.03;;;3.67;;
84889;SDS011;75153;52.222;5.160;2024-02-04T02:49:45;16.90;;;4.65;;
84889;SDS011;75153;52.222;5.160;2024-02-04T02:52:11;16.27;;;4.85;;
84889;SDS011;75153;52.222;5.160;2024-02-04T02:54:36;9.82;;;3.20;;
84889;SDS011;75153;52.222;5.160;2024-02-04T02:57:01;8.33;;;4.10;;
84889;SDS011;75153;52.222;5.160;2024-02-04T02:59:27;10.20;;;3.40;;
84889;SDS011;75153;52.222;5.160;2024-02-04T03:01:52;12.93;;;3.67;;
84889;SDS011;75153;52.222;5.160;2024-02-04T03:04:17;12.87;;;3.40;;
84889;SDS011;75153;52.222;5.160;2024-02-04T03:06:43;12.70;;;3.90;;
84889;SDS011;75153;52.222;5.160;2024-02-04T03:09:08;10.87;;;4.13;;
84889;SDS011;75153;52.222;5.160;2024-02-04T03:11:35;13.48;;;4.88;;
84889;SDS011;75153;52.222;5.160;2024-02-04T03:14:02;12.98;;;5.00;;
84889;SDS011;75153;52.222;5.160;2024-02-04T03:16:28;16.70;;;4.75;;
84889;SDS011;75153;52.222;5.160;2024-02-04T03:18:54;11.93;;;5.23;;
84889;SDS011;75153;52.222;5.160;2024-02-04T03:21:19;13.33;;;4.50;;
84889;SDS011;75153;52.222;5.160;2024-02-04T03:23:45;15.10;;;5.63;;
84889;SDS011;75153;52.222;5.160;2024-02-04T03:26:11;14.83;;;4.97;;
84889;SDS011;75153;52.222;5.160;2024-02-04T03:28:37;20.20;;;5.35;;
84889;SDS011;75153;52.222;5.160;2024-02-04T03:31:03;18.07;;;5.20;;
84889;SDS011;75153;52.222;5.160;2024-02-04T03:33:28;13.32;;;4.30;;
84889;SDS011;75153;52.222;5.160;2024-02-04T03:35:53;11.55;;;4.00;;
84889;SDS011;75153;52.222;5.160;2024-02-04T03:38:19;10.37;;;3.90;;
84889;SDS011;75153;52.222;5.160;2024-02-04T03:40:45;9.00;;;3.03;;
84889;SDS011;75153;52.222;5.160;2024-02-04T03:43:11;12.00;;;3.63;;
84889;SDS011;75153;52.222;5.160;2024-02-04T03:45:36;8.80;;;2.70;;
84889;SDS011;75153;52.222;5.160;2024-02-04T03:48:02;9.77;;;2.80;;
84889;SDS011;75153;52.222;5.160;2024-02-04T03:50:28;6.93;;;1.90;;
84889;SDS011;75153;52.222;5.160;2024-02-04T03:52:53;9.07;;;2.25;;
84889;SDS011;75153;52.222;5.160;2024-02-04T03:55:19;9.50;;;2.00;;
84889;SDS011;75153;52.222;5.160;2024-02-04T03:57:44;8.60;;;2.30;;
84889;SDS011;75153;52.222;5.160;2024-02-04T04:00:10;8.00;;;1.80;;
84889;SDS011;75153;52.222;5.160;2024-02-04T04:02:39;9.15;;;2.13;;
84889;SDS011;75153;52.222;5.160;2024-02-04T04:05:04;11.68;;;2.47;;
84889;SDS011;75153;52.222;5.160;2024-02-04T04:07:30;6.77;;;1.53;;
84889;SDS011;75153;52.222;5.160;2024-02-04T04:09:56;9.98;;;1.85;;
84889;SDS011;75153;52.222;5.160;2024-02-04T04:12:21;7.47;;;1.67;;
84889;SDS011;75153;52.222;5.160;2024-02-04T04:14:46;9.43;;;2.33;;
84889;SDS011;75153;52.222;5.160;2024-02-04T04:17:12;10.07;;;2.17;;
84889;SDS011;75153;52.222;5.160;2024-02-04T04:19:38;9.43;;;1.60;;
84889;SDS011;75153;52.222;5.160;2024-02-04T04:22:04;9.77;;;2.47;;
84889;SDS011;75153;52.222;5.160;2024-02-04T04:24:29;8.27;;;2.37;;
84889;SDS011;75153;52.222;5.160;2024-02-04T04:26:55;10.73;;;2.97;;
84889;SDS011;75153;52.222;5.160;2024-02-04T04:29:20;12.20;;;2.35;;
84889;SDS011;75153;52.222;5.160;2024-02-04T04:31:46;18.38;;;3.30;;
84889;SDS011;75153;52.222;5.160;2024-02-04T04:34:11;8.73;;;2.80;;
84889;SDS011;75153;52.222;5.160;2024-02-04T04:36:37;11.47;;;3.20;;
84889;SDS011;75153;52.222;5.160;2024-02-04T04:39:02;7.43;;;2.40;;
84889;SDS011;75153;52.222;5.160;2024-02-04T04:41:27;15.18;;;3.67;;
84889;SDS011;75153;52.222;5.160;2024-02-04T04:43:53;10.80;;;2.50;;
84889;SDS011;75153;52.222;5.160;2024-02-04T04:46:18;10.50;;;2.83;;
84889;SDS011;75153;52.222;5.160;2024-02-04T04:48:44;10.43;;;2.90;;
84889;SDS011;75153;52.222;5.160;2024-02-04T04:51:10;9.27;;;3.00;;
84889;SDS011;75153;52.222;5.160;2024-02-04T04:53:36;11.50;;;3.50;;
84889;SDS011;75153;52.222;5.160;2024-02-04T04:56:02;8.55;;;2.72;;
84889;SDS011;75153;52.222;5.160;2024-02-04T04:58:27;8.47;;;2.53;;
84889;SDS011;75153;52.222;5.160;2024-02-04T05:00:53;9.60;;;2.70;;
84889;SDS011;75153;52.222;5.160;2024-02-04T05:03:18;10.47;;;2.80;;
84889;SDS011;75153;52.222;5.160;2024-02-04T05:05:44;9.18;;;2.58;;
84889;SDS011;75153;52.222;5.160;2024-02-04T05:08:11;7.73;;;2.20;;
84889;SDS011;75153;52.222;5.160;2024-02-04T05:10:37;6.88;;;2.15;;
84889;SDS011;75153;52.222;5.160;2024-02-04T05:13:03;7.17;;;1.93;;
84889;SDS011;75153;52.222;5.160;2024-02-04T05:15:28;10.48;;;2.33;;
84889;SDS011;75153;52.222;5.160;2024-02-04T05:17:54;8.70;;;2.70;;
84889;SDS011;75153;52.222;5.160;2024-02-04T05:20:20;12.30;;;2.65;;
84889;SDS011;75153;52.222;5.160;2024-02-04T05:22:46;12.80;;;2.50;;
84889;SDS011;75153;52.222;5.160;2024-02-04T05:25:11;8.90;;;2.63;;
84889;SDS011;75153;52.222;5.160;2024-02-04T05:27:37;9.13;;;2.70;;
84889;SDS011;75153;52.222;5.160;2024-02-04T05:30:02;9.43;;;2.60;;
84889;SDS011;75153;52.222;5.160;2024-02-04T05:32:28;10.70;;;2.45;;
84889;SDS011;75153;52.222;5.160;2024-02-04T05:34:54;7.40;;;2.70;;
84889;SDS011;75153;52.222;5.160;2024-02-04T05:37:19;14.27;;;3.43;;
84889;SDS011;75153;52.222;5.160;2024-02-04T05:39:44;11.83;;;3.47;;
84889;SDS011;75153;52.222;5.160;2024-02-04T05:42:10;13.50;;;3.67;;
84889;SDS011;75153;52.222;5.160;2024-02-04T05:44:38;10.82;;;3.20;;
84889;SDS011;75153;52.222;5.160;2024-02-04T05:47:03;19.33;;;4.25;;
84889;SDS011;75153;52.222;5.160;2024-02-04T05:49:29;10.07;;;3.60;;
84889;SDS011;75153;52.222;5.160;2024-02-04T05:51:54;6.83;;;3.20;;
84889;SDS011;75153;52.222;5.160;2024-02-04T05:54:20;14.03;;;3.47;;
84889;SDS011;75153;52.222;5.160;2024-02-04T05:56:45;14.50;;;4.00;;
84889;SDS011;75153;52.222;5.160;2024-02-04T05:59:10;15.23;;;4.10;;
84889;SDS011;75153;52.222;5.160;2024-02-04T06:01:36;13.77;;;3.55;;
84889;SDS011;75153;52.222;5.160;2024-02-04T06:04:01;11.85;;;3.55;;
84889;SDS011;75153;52.222;5.160;2024-02-04T06:06:27;13.80;;;4.20;;
84889;SDS011;75153;52.222;5.160;2024-02-04T06:08:52;7.10;;;2.67;;
84889;SDS011;75153;52.222;5.160;2024-02-04T06:11:18;10.10;;;3.10;;
84889;SDS011;75153;52.222;5.160;2024-02-04T06:13:43;6.10;;;2.50;;
84889;SDS011;75153;52.222;5.160;2024-02-04T06:16:09;16.73;;;4.50;;
84889;SDS011;75153;52.222;5.160;2024-02-04T06:18:36;11.60;;;3.67;;
84889;SDS011;75153;52.222;5.160;2024-02-04T06:21:06;14.15;;;3.90;;
84889;SDS011;75153;52.222;5.160;2024-02-04T06:23:32;11.50;;;3.45;;
84889;SDS011;75153;52.222;5.160;2024-02-04T06:25:57;12.13;;;4.47;;
84889;SDS011;75153;52.222;5.160;2024-02-04T06:28:23;7.93;;;3.15;;
84889;SDS011;75153;52.222;5.160;2024-02-04T06:30:48;10.73;;;4.60;;
84889;SDS011;75153;52.222;5.160;2024-02-04T06:33:14;16.20;;;5.03;;
84889;SDS011;75153;52.222;5.160;2024-02-04T06:35:40;15.57;;;4.87;;
84889;SDS011;75153;52.222;5.160;2024-02-04T06:38:05;15.93;;;5.27;;
84889;SDS011;75153;52.222;5.160;2024-02-04T06:40:31;14.57;;;5.00;;
84889;SDS011;75153;52.222;5.160;2024-02-04T06:42:56;13.77;;;5.70;;
84889;SDS011;75153;52.222;5.160;2024-02-04T06:45:21;15.00;;;6.07;;
84889;SDS011;75153;52.222;5.160;2024-02-04T06:47:47;13.27;;;5.70;;
84889;SDS011;75153;52.222;5.160;2024-02-04T06:50:12;23.07;;;7.47;;
84889;SDS011;75153;52.222;5.160;2024-02-04T06:52:42;16.55;;;6.22;;
84889;SDS011;75153;52.222;5.160;2024-02-04T06:55:08;19.00;;;7.83;;
84889;SDS011;75153;52.222;5.160;2024-02-04T06:57:34;15.35;;;7.90;;
84889;SDS011;75153;52.222;5.160;2024-02-04T06:59:59;15.20;;;7.40;;
84889;SDS011;75153;52.222;5.160;2024-02-04T07:02:25;22.30;;;9.17;;
84889;SDS011;75153;52.222;5.160;2024-02-04T07:04:50;14.77;;;7.13;;
84889;SDS011;75153;52.222;5.160;2024-02-04T07:07:16;15.75;;;7.20;;
84889;SDS011;75153;52.222;5.160;2024-02-04T07:09:41;17.00;;;7.77;;
84889;SDS011;75153;52.222;5.160;2024-02-04T07:12:06;19.77;;;8.63;;
84889;SDS011;75153;52.222;5.160;2024-02-04T07:14:32;20.83;;;9.70;;
84889;SDS011;75153;52.222;5.160;2024-02-04T07:16:57;17.30;;;8.40;;
84889;SDS011;75153;52.222;5.160;2024-02-04T07:19:22;19.90;;;8.63;;
84889;SDS011;75153;52.222;5.160;2024-02-04T07:21:48;20.70;;;9.98;;
84889;SDS011;75153;52.222;5.160;2024-02-04T07:24:13;18.95;;;8.77;;
84889;SDS011;75153;52.222;5.160;2024-02-04T07:26:39;14.77;;;7.80;;
84889;SDS011;75153;52.222;5.160;2024-02-04T07:29:04;13.57;;;6.27;;
84889;SDS011;75153;52.222;5.160;2024-02-04T07:31:30;17.43;;;6.80;;
84889;SDS011;75153;52.222;5.160;2024-02-04T07:33:55;14.55;;;7.30;;
84889;SDS011;75153;52.222;5.160;2024-02-04T07:36:21;12.87;;;5.60;;
84889;SDS011;75153;52.222;5.160;2024-02-04T07:38:46;17.23;;;6.53;;
84889;SDS011;75153;52.222;5.160;2024-02-04T07:41:14;16.37;;;5.30;;
84889;SDS011;75153;52.222;5.160;2024-02-04T07:43:40;10.23;;;4.38;;
84889;SDS011;75153;52.222;5.160;2024-02-04T07:46:07;11.35;;;4.28;;
84889;SDS011;75153;52.222;5.160;2024-02-04T07:48:33;12.10;;;3.60;;
84889;SDS011;75153;52.222;5.160;2024-02-04T07:50:59;9.63;;;3.30;;
84889;SDS011;75153;52.222;5.160;2024-02-04T07:53:24;7.10;;;3.28;;
84889;SDS011;75153;52.222;5.160;2024-02-04T07:55:50;7.30;;;3.10;;
84889;SDS011;75153;52.222;5.160;2024-02-04T07:58:16;6.90;;;3.33;;
84889;SDS011;75153;52.222;5.160;2024-02-04T08:00:41;6.50;;;2.30;;
84889;SDS011;75153;52.222;5.160;2024-02-04T08:03:07;5.57;;;2.57;;
84889;SDS011;75153;52.222;5.160;2024-02-04T08:05:32;6.03;;;2.37;;
84889;SDS011;75153;52.222;5.160;2024-02-04T08:08:00;6.53;;;2.28;;
84889;SDS011;75153;52.222;5.160;2024-02-04T08:10:25;5.83;;;2.00;;
84889;SDS011;75153;52.222;5.160;2024-02-04T08:12:51;6.37;;;1.80;;
84889;SDS011;75153;52.222;5.160;2024-02-04T08:15:18;6.10;;;2.00;;
84889;SDS011;75153;52.222;5.160;2024-02-04T08:17:43;7.17;;;2.00;;
84889;SDS011;75153;52.222;5.160;2024-02-04T08:20:09;2.97;;;1.40;;
84889;SDS011;75153;52.222;5.160;2024-02-04T08:22:35;8.23;;;1.97;;
84889;SDS011;75153;52.222;5.160;2024-02-04T08:25:00;6.13;;;1.92;;
84889;SDS011;75153;52.222;5.160;2024-02-04T08:27:26;5.05;;;1.67;;
84889;SDS011;75153;52.222;5.160;2024-02-04T08:29:52;4.13;;;1.80;;
84889;SDS011;75153;52.222;5.160;2024-02-04T08:32:17;6.90;;;1.92;;
84889;SDS011;75153;52.222;5.160;2024-02-04T08:34:42;6.40;;;2.05;;
84889;SDS011;75153;52.222;5.160;2024-02-04T08:37:08;5.10;;;2.40;;
84889;SDS011;75153;52.222;5.160;2024-02-04T08:39:34;5.13;;;2.50;;
84889;SDS011;75153;52.222;5.160;2024-02-04T08:41:59;8.40;;;3.10;;
84889;SDS011;75153;52.222;5.160;2024-02-04T08:44:24;11.30;;;4.90;;
84889;SDS011;75153;52.222;5.160;2024-02-04T08:46:50;9.03;;;4.40;;
84889;SDS011;75153;52.222;5.160;2024-02-04T08:49:15;11.13;;;4.93;;
84889;SDS011;75153;52.222;5.160;2024-02-04T08:51:40;11.60;;;5.23;;
84889;SDS011;75153;52.222;5.160;2024-02-04T08:54:06;13.80;;;5.23;;
84889;SDS011;75153;52.222;5.160;2024-02-04T08:56:31;17.07;;;6.37;;
84889;SDS011;75153;52.222;5.160;2024-02-04T08:58:57;15.20;;;5.72;;
84889;SDS011;75153;52.222;5.160;2024-02-04T09:01:22;14.70;;;5.47;;
84889;SDS011;75153;52.222;5.160;2024-02-04T09:03:48;10.20;;;4.27;;
84889;SDS011;75153;52.222;5.160;2024-02-04T09:06:13;13.25;;;4.13;;
84889;SDS011;75153;52.222;5.160;2024-02-04T09:08:39;11.40;;;3.53;;
84889;SDS011;75153;52.222;5.160;2024-02-04T09:11:04;9.93;;;2.77;;
84889;SDS011;75153;52.222;5.160;2024-02-04T09:13:29;13.10;;;3.30;;
84889;SDS011;75153;52.222;5.160;2024-02-04T09:15:55;9.87;;;2.70;;
84889;SDS011;75153;52.222;5.160;2024-02-04T09:18:20;6.37;;;2.50;;
84889;SDS011;75153;52.222;5.160;2024-02-04T09:20:46;11.55;;;3.03;;
84889;SDS011;75153;52.222;5.160;2024-02-04T09:23:12;6.57;;;2.35;;
84889;SDS011;75153;52.222;5.160;2024-02-04T09:25:37;6.88;;;2.20;;
84889;SDS011;75153;52.222;5.160;2024-02-04T09:28:03;5.07;;;1.98;;
84889;SDS011;75153;52.222;5.160;2024-02-04T09:30:28;5.47;;;2.33;;
84889;SDS011;75153;52.222;5.160;2024-02-04T09:32:53;6.50;;;2.10;;
84889;SDS011;75153;52.222;5.160;2024-02-04T09:35:19;6.40;;;1.97;;
84889;SDS011;75153;52.222;5.160;2024-02-04T09:37:44;6.28;;;2.10;;
84889;SDS011;75153;52.222;5.160;2024-02-04T09:40:10;4.32;;;1.95;;
84889;SDS011;75153;52.222;5.160;2024-02-04T09:42:36;3.03;;;1.60;;
84889;SDS011;75153;52.222;5.160;2024-02-04T09:45:01;3.63;;;1.50;;
84889;SDS011;75153;52.222;5.160;2024-02-04T09:47:27;4.07;;;1.60;;
84889;SDS011;75153;52.222;5.160;2024-02-04T09:49:54;3.67;;;1.30;;
84889;SDS011;75153;52.222;5.160;2024-02-04T09:52:21;6.18;;;1.50;;
84889;SDS011;75153;52.222;5.160;2024-02-04T09:55:02;4.70;;;1.55;;
84889;SDS011;75153;52.222;5.160;2024-02-04T09:57:31;6.00;;;1.77;;
84889;SDS011;75153;52.222;5.160;2024-02-04T09:59:57;3.37;;;1.30;;
84889;SDS011;75153;52.222;5.160;2024-02-04T10:02:22;4.70;;;1.25;;
84889;SDS011;75153;52.222;5.160;2024-02-04T10:04:49;6.87;;;1.63;;
84889;SDS011;75153;52.222;5.160;2024-02-04T10:07:14;5.30;;;1.40;;
84889;SDS011;75153;52.222;5.160;2024-02-04T10:09:42;3.67;;;1.13;;
84889;SDS011;75153;52.222;5.160;2024-02-04T10:12:08;3.05;;;1.17;;
84889;SDS011;75153;52.222;5.160;2024-02-04T10:14:34;4.50;;;1.10;;
84889;SDS011;75153;52.222;5.160;2024-02-04T10:16:59;5.43;;;1.13;;
84889;SDS011;75153;52.222;5.160;2024-02-04T10:19:25;4.68;;;1.00;;
84889;SDS011;75153;52.222;5.160;2024-02-04T10:21:58;4.13;;;0.90;;
84889;SDS011;75153;52.222;5.160;2024-02-04T10:24:27;2.70;;;1.00;;
84889;SDS011;75153;52.222;5.160;2024-02-04T10:26:53;5.47;;;1.10;;
84889;SDS011;75153;52.222;5.160;2024-02-04T10:29:20;3.85;;;1.13;;
84889;SDS011;75153;52.222;5.160;2024-02-04T10:31:46;2.43;;;0.77;;
84889;SDS011;75153;52.222;5.160;2024-02-04T10:34:11;2.70;;;0.90;;
84889;SDS011;75153;52.222;5.160;2024-02-04T10:36:37;5.40;;;0.90;;
84889;SDS011;75153;52.222;5.160;2024-02-04T10:39:03;2.40;;;0.70;;
84889;SDS011;75153;52.222;5.160;2024-02-04T10:41:29;5.35;;;1.00;;
84889;SDS011;75153;52.222;5.160;2024-02-04T10:43:56;3.13;;;1.07;;
84889;SDS011;75153;52.222;5.160;2024-02-04T10:46:24;3.92;;;0.82;;
84889;SDS011;75153;52.222;5.160;2024-02-04T10:48:55;2.17;;;0.90;;
84889;SDS011;75153;52.222;5.160;2024-02-04T10:51:24;2.63;;;0.90;;
84889;SDS011;75153;52.222;5.160;2024-02-04T10:53:51;3.03;;;0.98;;
84889;SDS011;75153;52.222;5.160;2024-02-04T10:56:29;2.93;;;0.90;;
84889;SDS011;75153;52.222;5.160;2024-02-04T10:58:57;3.58;;;0.80;;
84889;SDS011;75153;52.222;5.160;2024-02-04T11:01:25;2.33;;;0.80;;
84889;SDS011;75153;52.222;5.160;2024-02-04T11:03:51;4.20;;;1.00;;
84889;SDS011;75153;52.222;5.160;2024-02-04T11:06:18;3.03;;;1.10;;
84889;SDS011;75153;52.222;5.160;2024-02-04T11:08:46;4.77;;;1.20;;
84889;SDS011;75153;52.222;5.160;2024-02-04T11:11:12;2.63;;;0.80;;
84889;SDS011;75153;52.222;5.160;2024-02-04T11:13:37;4.47;;;1.25;;
84889;SDS011;75153;52.222;5.160;2024-02-04T11:16:07;2.50;;;0.80;;
84889;SDS011;75153;52.222;5.160;2024-02-04T11:22:30;4.07;;;1.63;;
84889;SDS011;75153;52.222;5.160;2024-02-04T11:27:09;6.85;;;2.25;;
84889;SDS011;75153;52.222;5.160;2024-02-04T11:29:35;3.93;;;1.70;;
84889;SDS011;75153;52.222;5.160;2024-02-04T11:32:01;7.78;;;1.80;;
84889;SDS011;75153;52.222;5.160;2024-02-04T11:34:27;5.13;;;1.70;;
84889;SDS011;75153;52.222;5.160;2024-02-04T11:36:53;6.22;;;2.45;;
84889;SDS011;75153;52.222;5.160;2024-02-04T11:39:18;8.50;;;2.40;;
84889;SDS011;75153;52.222;5.160;2024-02-04T11:41:47;9.00;;;3.13;;
84889;SDS011;75153;52.222;5.160;2024-02-04T11:44:23;11.68;;;3.10;;
84889;SDS011;75153;52.222;5.160;2024-02-04T11:46:49;12.50;;;2.72;;
84889;SDS011;75153;52.222;5.160;2024-02-04T11:49:18;8.02;;;2.40;;
84889;SDS011;75153;52.222;5.160;2024-02-04T11:51:48;12.73;;;2.83;;
84889;SDS011;75153;52.222;5.160;2024-02-04T11:54:15;10.80;;;2.60;;
84889;SDS011;75153;52.222;5.160;2024-02-04T11:56:42;13.90;;;2.50;;
84889;SDS011;75153;52.222;5.160;2024-02-04T11:59:08;10.20;;;2.30;;
84889;SDS011;75153;52.222;5.160;2024-02-04T12:01:35;10.57;;;2.40;;
84889;SDS011;75153;52.222;5.160;2024-02-04T12:04:10;10.50;;;2.10;;
84889;SDS011;75153;52.222;5.160;2024-02-04T12:06:38;13.13;;;2.25;;
84889;SDS011;75153;52.222;5.160;2024-02-04T12:09:05;8.43;;;2.10;;
84889;SDS011;75153;52.222;5.160;2024-02-04T12:11:33;14.43;;;2.80;;
84889;SDS011;75153;52.222;5.160;2024-02-04T12:14:00;11.50;;;1.98;;
84889;SDS011;75153;52.222;5.160;2024-02-04T12:16:26;7.93;;;1.73;;
84889;SDS011;75153;52.222;5.160;2024-02-04T12:18:52;9.70;;;2.30;;
84889;SDS011;75153;52.222;5.160;2024-02-04T12:21:18;12.43;;;2.10;;
84889;SDS011;75153;52.222;5.160;2024-02-04T12:23:43;8.13;;;2.10;;
84889;SDS011;75153;52.222;5.160;2024-02-04T12:26:09;8.45;;;2.00;;
84889;SDS011;75153;52.222;5.160;2024-02-04T12:28:34;10.13;;;1.80;;
84889;SDS011;75153;52.222;5.160;2024-02-04T12:31:00;5.13;;;1.60;;
84889;SDS011;75153;52.222;5.160;2024-02-04T12:33:25;9.60;;;1.63;;
84889;SDS011;75153;52.222;5.160;2024-02-04T12:35:54;7.22;;;1.88;;
84889;SDS011;75153;52.222;5.160;2024-02-04T12:38:21;7.37;;;2.10;;
84889;SDS011;75153;52.222;5.160;2024-02-04T12:40:46;8.98;;;1.98;;
84889;SDS011;75153;52.222;5.160;2024-02-04T12:43:12;7.33;;;1.67;;
84889;SDS011;75153;52.222;5.160;2024-02-04T12:45:37;6.85;;;1.73;;
84889;SDS011;75153;52.222;5.160;2024-02-04T12:48:04;7.18;;;1.45;;
84889;SDS011;75153;52.222;5.160;2024-02-04T12:50:30;6.57;;;1.67;;
84889;SDS011;75153;52.222;5.160;2024-02-04T12:53:06;7.72;;;1.40;;
84889;SDS011;75153;52.222;5.160;2024-02-04T12:55:34;7.53;;;1.50;;
84889;SDS011;75153;52.222;5.160;2024-02-04T12:58:06;5.68;;;1.35;;
84889;SDS011;75153;52.222;5.160;2024-02-04T13:00:33;11.57;;;1.90;;
84889;SDS011;75153;52.222;5.160;2024-02-04T13:02:59;7.40;;;1.70;;
84889;SDS011;75153;52.222;5.160;2024-02-04T13:05:25;5.18;;;1.10;;
84889;SDS011;75153;52.222;5.160;2024-02-04T13:07:55;6.50;;;1.93;;
84889;SDS011;75153;52.222;5.160;2024-02-04T13:10:23;6.90;;;1.70;;
84889;SDS011;75153;52.222;5.160;2024-02-04T13:12:58;6.38;;;1.50;;
84889;SDS011;75153;52.222;5.160;2024-02-04T13:15:31;5.97;;;1.73;;
84889;SDS011;75153;52.222;5.160;2024-02-04T13:17:58;9.70;;;1.98;;
84889;SDS011;75153;52.222;5.160;2024-02-04T13:20:24;5.23;;;1.63;;
84889;SDS011;75153;52.222;5.160;2024-02-04T13:22:50;6.25;;;2.00;;
84889;SDS011;75153;52.222;5.160;2024-02-04T13:25:18;8.55;;;1.80;;
84889;SDS011;75153;52.222;5.160;2024-02-04T13:27:44;6.90;;;1.60;;
84889;SDS011;75153;52.222;5.160;2024-02-04T13:30:09;6.77;;;1.53;;
84889;SDS011;75153;52.222;5.160;2024-02-04T13:32:40;7.22;;;1.88;;
84889;SDS011;75153;52.222;5.160;2024-02-04T13:35:06;5.50;;;1.40;;
84889;SDS011;75153;52.222;5.160;2024-02-04T13:37:34;6.25;;;1.42;;
84889;SDS011;75153;52.222;5.160;2024-02-04T13:40:20;6.75;;;1.58;;
84889;SDS011;75153;52.222;5.160;2024-02-04T13:42:47;10.70;;;1.80;;
84889;SDS011;75153;52.222;5.160;2024-02-04T13:45:13;5.00;;;1.65;;
84889;SDS011;75153;52.222;5.160;2024-02-04T13:47:39;10.15;;;1.52;;
84889;SDS011;75153;52.222;5.160;2024-02-04T13:50:05;5.85;;;1.60;;
84889;SDS011;75153;52.222;5.160;2024-02-04T13:52:33;5.97;;;1.37;;
84889;SDS011;75153;52.222;5.160;2024-02-04T13:54:59;7.55;;;2.00;;
84889;SDS011;75153;52.222;5.160;2024-02-04T13:57:24;5.97;;;1.60;;
84889;SDS011;75153;52.222;5.160;2024-02-04T13:59:50;4.93;;;1.75;;
84889;SDS011;75153;52.222;5.160;2024-02-04T14:02:15;6.83;;;1.40;;
84889;SDS011;75153;52.222;5.160;2024-02-04T14:04:41;7.80;;;1.70;;
84889;SDS011;75153;52.222;5.160;2024-02-04T14:07:07;5.83;;;1.30;;
84889;SDS011;75153;52.222;5.160;2024-02-04T14:09:33;6.00;;;1.42;;
84889;SDS011;75153;52.222;5.160;2024-02-04T14:11:59;8.93;;;1.93;;
84889;SDS011;75153;52.222;5.160;2024-02-04T14:14:24;6.00;;;1.38;;
84889;SDS011;75153;52.222;5.160;2024-02-04T14:16:50;5.93;;;1.70;;
84889;SDS011;75153;52.222;5.160;2024-02-04T14:19:15;5.77;;;1.30;;
84889;SDS011;75153;52.222;5.160;2024-02-04T14:21:41;8.77;;;1.98;;
84889;SDS011;75153;52.222;5.160;2024-02-04T14:24:07;8.40;;;1.60;;
84889;SDS011;75153;52.222;5.160;2024-02-04T14:26:32;5.47;;;2.23;;
84889;SDS011;75153;52.222;5.160;2024-02-04T14:28:58;5.73;;;1.67;;
84889;SDS011;75153;52.222;5.160;2024-02-04T14:31:23;9.07;;;1.90;;
84889;SDS011;75153;52.222;5.160;2024-02-04T14:33:48;6.73;;;1.60;;
84889;SDS011;75153;52.222;5.160;2024-02-04T14:36:14;5.23;;;1.30;;
84889;SDS011;75153;52.222;5.160;2024-02-04T14:38:39;5.77;;;1.60;;
84889;SDS011;75153;52.222;5.160;2024-02-04T14:41:05;6.72;;;1.63;;
84889;SDS011;75153;52.222;5.160;2024-02-04T14:43:31;5.03;;;1.50;;
84889;SDS011;75153;52.222;5.160;2024-02-04T14:45:56;8.20;;;1.90;;